sensor_id;sensor_type;location;lat;lon;timestamp;temperature;humidity
12845;DHT22;68700;48.534;9.196;2023-10-09T00:01:19;12.60;1.00
12845;DHT22;68700;48.534;9.196;2023-10-09T00:04:41;12.50;1.00
12845;DHT22;68700;48.534;9.196;2023-10-09T00:08:05;12.40;1.00
12845;DHT22;68700;48.534;9.196;2023-10-09T00:11:29;12.30;1.00
12845;DHT22;68700;48.534;9.196;2023-10-09T00:15:00;12.30;1.00
12845;DHT22;68700;48.534;9.196;2023-10-09T00:18:31;12.30;1.00
12845;DHT22;68700;48.534;9.196;2023-10-09T00:21:54;12.30;1.00
12845;DHT22;68700;48.534;9.196;2023-10-09T00:25:16;12.30;1.00
12845;DHT22;68700;48.534;9.196;2023-10-09T00:28:43;12.20;1.00
12845;DHT22;68700;48.534;9.196;2023-10-09T00:32:08;12.20;1.00
12845;DHT22;68700;48.534;9.196;2023-10-09T00:35:38;12.20;1.00
12845;DHT22;68700;48.534;9.196;2023-10-09T00:39:07;12.10;1.00
12845;DHT22;68700;48.534;9.196;2023-10-09T00:42:38;12.10;1.00
12845;DHT22;68700;48.534;9.196;2023-10-09T00:46:02;12.10;1.00
12845;DHT22;68700;48.534;9.196;2023-10-09T00:49:30;12.10;1.00
12845;DHT22;68700;48.534;9.196;2023-10-09T00:52:56;12.10;1.00
12845;DHT22;68700;48.534;9.196;2023-10-09T00:56:24;12.00;1.00
12845;DHT22;68700;48.534;9.196;2023-10-09T00:59:59;12.00;1.00
12845;DHT22;68700;48.534;9.196;2023-10-09T01:03:21;12.00;1.00
12845;DHT22;68700;48.534;9.196;2023-10-09T01:06:46;11.90;1.00
12845;DHT22;68700;48.534;9.196;2023-10-09T01:10:14;11.80;1.00
12845;DHT22;68700;48.534;9.196;2023-10-09T01:13:38;11.70;1.00
12845;DHT22;68700;48.534;9.196;2023-10-09T01:17:13;11.60;1.00
12845;DHT22;68700;48.534;9.196;2023-10-09T01:20:49;11.60;1.00
12845;DHT22;68700;48.534;9.196;2023-10-09T01:24:14;11.50;1.00
12845;DHT22;68700;48.534;9.196;2023-10-09T01:27:36;11.50;1.00
12845;DHT22;68700;48.534;9.196;2023-10-09T01:31:00;11.50;1.00
12845;DHT22;68700;48.534;9.196;2023-10-09T01:34:23;11.50;1.00
12845;DHT22;68700;48.534;9.196;2023-10-09T01:37:50;11.60;1.00
12845;DHT22;68700;48.534;9.196;2023-10-09T01:41:14;11.60;1.00
12845;DHT22;68700;48.534;9.196;2023-10-09T01:44:40;11.60;1.00
12845;DHT22;68700;48.534;9.196;2023-10-09T01:48:05;11.50;1.00
12845;DHT22;68700;48.534;9.196;2023-10-09T01:51:28;11.60;1.00
12845;DHT22;68700;48.534;9.196;2023-10-09T01:54:54;11.60;1.00
12845;DHT22;68700;48.534;9.196;2023-10-09T01:58:23;11.60;1.00
12845;DHT22;68700;48.534;9.196;2023-10-09T02:01:48;11.60;1.00
12845;DHT22;68700;48.534;9.196;2023-10-09T02:05:10;11.70;1.00
12845;DHT22;68700;48.534;9.196;2023-10-09T02:08:45;11.70;1.00
12845;DHT22;68700;48.534;9.196;2023-10-09T02:12:10;11.70;1.00
12845;DHT22;68700;48.534;9.196;2023-10-09T02:15:35;11.80;1.00
12845;DHT22;68700;48.534;9.196;2023-10-09T02:19:11;11.90;1.00
12845;DHT22;68700;48.534;9.196;2023-10-09T02:22:50;11.90;1.00
12845;DHT22;68700;48.534;9.196;2023-10-09T02:26:14;11.90;1.00
12845;DHT22;68700;48.534;9.196;2023-10-09T02:29:38;12.00;1.00
12845;DHT22;68700;48.534;9.196;2023-10-09T02:33:03;12.00;1.00
12845;DHT22;68700;48.534;9.196;2023-10-09T02:36:29;12.10;1.00
12845;DHT22;68700;48.534;9.196;2023-10-09T02:39:51;12.10;1.00
12845;DHT22;68700;48.534;9.196;2023-10-09T02:43:13;11.90;1.00
12845;DHT22;68700;48.534;9.196;2023-10-09T02:46:38;11.80;1.00
12845;DHT22;68700;48.534;9.196;2023-10-09T02:50:02;11.80;1.00
12845;DHT22;68700;48.534;9.196;2023-10-09T02:53:27;11.80;1.00
12845;DHT22;68700;48.534;9.196;2023-10-09T02:56:57;11.80;1.00
12845;DHT22;68700;48.534;9.196;2023-10-09T03:00:27;11.80;1.00
12845;DHT22;68700;48.534;9.196;2023-10-09T03:03:52;11.80;1.00
12845;DHT22;68700;48.534;9.196;2023-10-09T03:07:15;11.80;1.00
12845;DHT22;68700;48.534;9.196;2023-10-09T03:10:37;11.90;1.00
12845;DHT22;68700;48.534;9.196;2023-10-09T03:13:59;11.80;1.00
12845;DHT22;68700;48.534;9.196;2023-10-09T03:17:23;11.80;1.00
12845;DHT22;68700;48.534;9.196;2023-10-09T03:20:45;11.80;1.00
12845;DHT22;68700;48.534;9.196;2023-10-09T03:24:09;11.80;1.00
12845;DHT22;68700;48.534;9.196;2023-10-09T03:27:31;11.80;1.00
12845;DHT22;68700;48.534;9.196;2023-10-09T03:30:54;11.80;1.00
12845;DHT22;68700;48.534;9.196;2023-10-09T03:34:20;11.80;1.00
12845;DHT22;68700;48.534;9.196;2023-10-09T03:37:41;11.80;1.00
12845;DHT22;68700;48.534;9.196;2023-10-09T03:41:06;11.70;1.00
12845;DHT22;68700;48.534;9.196;2023-10-09T03:44:31;11.70;1.00
12845;DHT22;68700;48.534;9.196;2023-10-09T03:47:55;11.70;1.00
12845;DHT22;68700;48.534;9.196;2023-10-09T03:51:22;11.60;1.00
12845;DHT22;68700;48.534;9.196;2023-10-09T03:54:46;11.60;1.00
12845;DHT22;68700;48.534;9.196;2023-10-09T03:58:11;11.50;1.00
12845;DHT22;68700;48.534;9.196;2023-10-09T04:01:34;11.50;1.00
12845;DHT22;68700;48.534;9.196;2023-10-09T04:04:59;11.50;1.00
12845;DHT22;68700;48.534;9.196;2023-10-09T04:08:21;11.50;1.00
12845;DHT22;68700;48.534;9.196;2023-10-09T04:11:50;11.40;1.00
12845;DHT22;68700;48.534;9.196;2023-10-09T04:15:28;11.40;1.00
12845;DHT22;68700;48.534;9.196;2023-10-09T04:18:56;11.40;1.00
12845;DHT22;68700;48.534;9.196;2023-10-09T04:22:17;11.40;1.00
12845;DHT22;68700;48.534;9.196;2023-10-09T04:25:47;11.40;1.00
12845;DHT22;68700;48.534;9.196;2023-10-09T04:29:12;11.40;1.00
12845;DHT22;68700;48.534;9.196;2023-10-09T04:32:40;11.40;1.00
12845;DHT22;68700;48.534;9.196;2023-10-09T04:36:06;11.20;1.00
12845;DHT22;68700;48.534;9.196;2023-10-09T04:39:42;11.20;1.00
12845;DHT22;68700;48.534;9.196;2023-10-09T04:43:07;11.20;1.00
12845;DHT22;68700;48.534;9.196;2023-10-09T04:46:40;11.20;1.00
12845;DHT22;68700;48.534;9.196;2023-10-09T04:50:08;11.10;1.00
12845;DHT22;68700;48.534;9.196;2023-10-09T04:53:31;11.00;1.00
12845;DHT22;68700;48.534;9.196;2023-10-09T04:56:59;11.00;1.00
12845;DHT22;68700;48.534;9.196;2023-10-09T05:00:21;11.00;1.00
12845;DHT22;68700;48.534;9.196;2023-10-09T05:04:04;10.90;1.00
12845;DHT22;68700;48.534;9.196;2023-10-09T05:07:37;11.00;1.00
12845;DHT22;68700;48.534;9.196;2023-10-09T05:11:15;11.10;1.00
12845;DHT22;68700;48.534;9.196;2023-10-09T05:14:54;11.10;1.00
12845;DHT22;68700;48.534;9.196;2023-10-09T05:18:29;11.20;1.00
12845;DHT22;68700;48.534;9.196;2023-10-09T05:21:56;11.10;1.00
12845;DHT22;68700;48.534;9.196;2023-10-09T05:25:20;11.10;1.00
12845;DHT22;68700;48.534;9.196;2023-10-09T05:29:02;11.00;1.00
12845;DHT22;68700;48.534;9.196;2023-10-09T05:32:39;10.90;1.00
12845;DHT22;68700;48.534;9.196;2023-10-09T05:36:08;11.00;1.00
12845;DHT22;68700;48.534;9.196;2023-10-09T05:39:52;11.00;1.00
12845;DHT22;68700;48.534;9.196;2023-10-09T05:43:41;11.10;1.00
12845;DHT22;68700;48.534;9.196;2023-10-09T05:47:20;11.10;1.00
12845;DHT22;68700;48.534;9.196;2023-10-09T05:50:52;11.20;1.00
12845;DHT22;68700;48.534;9.196;2023-10-09T05:54:27;11.20;1.00
12845;DHT22;68700;48.534;9.196;2023-10-09T05:58:03;11.30;1.00
12845;DHT22;68700;48.534;9.196;2023-10-09T06:01:44;11.40;1.00
12845;DHT22;68700;48.534;9.196;2023-10-09T06:05:23;11.50;1.00
12845;DHT22;68700;48.534;9.196;2023-10-09T06:09:12;11.60;1.00
12845;DHT22;68700;48.534;9.196;2023-10-09T06:12:52;11.80;1.00
12845;DHT22;68700;48.534;9.196;2023-10-09T06:16:24;11.90;1.00
12845;DHT22;68700;48.534;9.196;2023-10-09T06:20:04;12.10;1.00
12845;DHT22;68700;48.534;9.196;2023-10-09T06:23:47;12.20;1.00
12845;DHT22;68700;48.534;9.196;2023-10-09T06:27:26;12.30;1.00
12845;DHT22;68700;48.534;9.196;2023-10-09T06:31:08;12.40;1.00
12845;DHT22;68700;48.534;9.196;2023-10-09T06:34:50;12.60;1.00
12845;DHT22;68700;48.534;9.196;2023-10-09T06:38:14;12.80;1.00
12845;DHT22;68700;48.534;9.196;2023-10-09T06:41:42;13.00;1.00
12845;DHT22;68700;48.534;9.196;2023-10-09T06:45:07;13.20;1.00
12845;DHT22;68700;48.534;9.196;2023-10-09T06:48:30;13.60;1.00
12845;DHT22;68700;48.534;9.196;2023-10-09T06:52:06;14.10;1.00
12845;DHT22;68700;48.534;9.196;2023-10-09T06:55:37;14.10;1.00
12845;DHT22;68700;48.534;9.196;2023-10-09T06:59:08;14.20;1.00
12845;DHT22;68700;48.534;9.196;2023-10-09T07:02:37;14.30;1.00
12845;DHT22;68700;48.534;9.196;2023-10-09T07:06:06;14.50;1.00
12845;DHT22;68700;48.534;9.196;2023-10-09T07:09:44;14.60;1.00
12845;DHT22;68700;48.534;9.196;2023-10-09T07:13:26;14.40;1.00
12845;DHT22;68700;48.534;9.196;2023-10-09T07:16:49;14.20;1.00
12845;DHT22;68700;48.534;9.196;2023-10-09T07:20:17;14.30;1.00
12845;DHT22;68700;48.534;9.196;2023-10-09T07:23:57;14.40;1.00
12845;DHT22;68700;48.534;9.196;2023-10-09T07:27:19;14.50;1.00
12845;DHT22;68700;48.534;9.196;2023-10-09T07:31:02;14.70;1.00
12845;DHT22;68700;48.534;9.196;2023-10-09T07:34:25;15.00;1.00
12845;DHT22;68700;48.534;9.196;2023-10-09T07:37:53;15.10;1.00
12845;DHT22;68700;48.534;9.196;2023-10-09T07:41:15;15.20;1.00
12845;DHT22;68700;48.534;9.196;2023-10-09T07:44:58;15.20;1.00
12845;DHT22;68700;48.534;9.196;2023-10-09T07:48:33;15.40;1.00
12845;DHT22;68700;48.534;9.196;2023-10-09T07:52:01;15.70;1.00
12845;DHT22;68700;48.534;9.196;2023-10-09T07:55:22;16.00;1.00
12845;DHT22;68700;48.534;9.196;2023-10-09T07:58:50;16.30;1.00
12845;DHT22;68700;48.534;9.196;2023-10-09T08:02:12;16.70;1.00
12845;DHT22;68700;48.534;9.196;2023-10-09T08:05:36;16.10;1.00
12845;DHT22;68700;48.534;9.196;2023-10-09T08:09:05;16.60;1.00
12845;DHT22;68700;48.534;9.196;2023-10-09T08:12:59;16.90;1.00
12845;DHT22;68700;48.534;9.196;2023-10-09T08:16:20;17.20;1.00
12845;DHT22;68700;48.534;9.196;2023-10-09T08:19:45;17.50;1.00
12845;DHT22;68700;48.534;9.196;2023-10-09T08:23:16;17.70;1.00
12845;DHT22;68700;48.534;9.196;2023-10-09T08:26:49;17.80;1.00
12845;DHT22;68700;48.534;9.196;2023-10-09T08:30:31;18.30;1.00
12845;DHT22;68700;48.534;9.196;2023-10-09T08:34:10;18.50;1.00
12845;DHT22;68700;48.534;9.196;2023-10-09T08:37:44;19.00;1.00
12845;DHT22;68700;48.534;9.196;2023-10-09T08:41:11;19.30;1.00
12845;DHT22;68700;48.534;9.196;2023-10-09T08:44:39;20.00;1.00
12845;DHT22;68700;48.534;9.196;2023-10-09T08:48:41;20.30;1.00
12845;DHT22;68700;48.534;9.196;2023-10-09T08:52:04;20.70;1.00
12845;DHT22;68700;48.534;9.196;2023-10-09T08:55:26;20.60;1.00
12845;DHT22;68700;48.534;9.196;2023-10-09T08:58:51;20.70;1.00
12845;DHT22;68700;48.534;9.196;2023-10-09T09:02:13;21.30;1.00
12845;DHT22;68700;48.534;9.196;2023-10-09T09:05:35;21.40;99.90
12845;DHT22;68700;48.534;9.196;2023-10-09T09:09:10;21.30;1.00
12845;DHT22;68700;48.534;9.196;2023-10-09T09:12:38;21.50;1.00
12845;DHT22;68700;48.534;9.196;2023-10-09T09:16:02;21.40;1.00
12845;DHT22;68700;48.534;9.196;2023-10-09T09:19:31;21.60;1.00
12845;DHT22;68700;48.534;9.196;2023-10-09T09:22:57;21.60;99.90
12845;DHT22;68700;48.534;9.196;2023-10-09T09:26:19;21.30;99.90
12845;DHT22;68700;48.534;9.196;2023-10-09T09:29:55;21.40;99.90
12845;DHT22;68700;48.534;9.196;2023-10-09T09:33:19;20.80;99.90
12845;DHT22;68700;48.534;9.196;2023-10-09T09:36:52;21.30;99.90
12845;DHT22;68700;48.534;9.196;2023-10-09T09:40:17;21.70;99.90
12845;DHT22;68700;48.534;9.196;2023-10-09T09:43:53;21.50;99.90
12845;DHT22;68700;48.534;9.196;2023-10-09T09:47:16;21.60;99.90
12845;DHT22;68700;48.534;9.196;2023-10-09T09:50:47;22.00;99.90
12845;DHT22;68700;48.534;9.196;2023-10-09T09:54:09;22.30;99.90
12845;DHT22;68700;48.534;9.196;2023-10-09T09:57:36;21.60;99.90
12845;DHT22;68700;48.534;9.196;2023-10-09T10:01:03;22.10;99.90
12845;DHT22;68700;48.534;9.196;2023-10-09T10:04:39;22.20;99.90
12845;DHT22;68700;48.534;9.196;2023-10-09T10:08:04;22.50;99.90
12845;DHT22;68700;48.534;9.196;2023-10-09T10:11:44;23.50;99.90
12845;DHT22;68700;48.534;9.196;2023-10-09T10:15:07;24.80;99.90
12845;DHT22;68700;48.534;9.196;2023-10-09T10:18:54;25.80;99.90
12845;DHT22;68700;48.534;9.196;2023-10-09T10:22:28;26.40;99.90
12845;DHT22;68700;48.534;9.196;2023-10-09T10:25:51;27.10;99.90
12845;DHT22;68700;48.534;9.196;2023-10-09T10:29:21;26.90;99.90
12845;DHT22;68700;48.534;9.196;2023-10-09T10:32:56;27.30;99.90
12845;DHT22;68700;48.534;9.196;2023-10-09T10:36:19;28.10;99.90
12845;DHT22;68700;48.534;9.196;2023-10-09T10:39:50;27.30;99.90
12845;DHT22;68700;48.534;9.196;2023-10-09T10:43:16;26.30;99.90
12845;DHT22;68700;48.534;9.196;2023-10-09T10:46:52;26.40;99.90
12845;DHT22;68700;48.534;9.196;2023-10-09T10:50:14;27.90;99.90
12845;DHT22;68700;48.534;9.196;2023-10-09T10:53:55;28.30;99.90
12845;DHT22;68700;48.534;9.196;2023-10-09T10:57:19;28.40;99.90
12845;DHT22;68700;48.534;9.196;2023-10-09T11:00:53;28.20;99.90
12845;DHT22;68700;48.534;9.196;2023-10-09T11:04:34;27.40;99.90
12845;DHT22;68700;48.534;9.196;2023-10-09T11:08:09;26.80;99.90
12845;DHT22;68700;48.534;9.196;2023-10-09T11:11:31;26.70;99.90
12845;DHT22;68700;48.534;9.196;2023-10-09T11:15:01;25.70;99.90
12845;DHT22;68700;48.534;9.196;2023-10-09T11:18:29;25.40;99.90
12845;DHT22;68700;48.534;9.196;2023-10-09T11:21:51;25.30;99.90
12845;DHT22;68700;48.534;9.196;2023-10-09T11:25:19;25.20;99.90
12845;DHT22;68700;48.534;9.196;2023-10-09T11:28:40;24.90;99.90
12845;DHT22;68700;48.534;9.196;2023-10-09T11:32:15;24.90;99.90
12845;DHT22;68700;48.534;9.196;2023-10-09T11:35:40;24.80;99.90
12845;DHT22;68700;48.534;9.196;2023-10-09T11:39:24;24.90;99.90
12845;DHT22;68700;48.534;9.196;2023-10-09T11:42:51;25.10;99.90
12845;DHT22;68700;48.534;9.196;2023-10-09T11:46:18;24.90;99.90
12845;DHT22;68700;48.534;9.196;2023-10-09T11:50:00;25.00;99.90
12845;DHT22;68700;48.534;9.196;2023-10-09T11:53:41;24.90;99.90
12845;DHT22;68700;48.534;9.196;2023-10-09T11:57:04;24.60;99.90
12845;DHT22;68700;48.534;9.196;2023-10-09T12:00:25;24.80;99.90
12845;DHT22;68700;48.534;9.196;2023-10-09T12:03:50;24.80;99.90
12845;DHT22;68700;48.534;9.196;2023-10-09T12:07:13;24.80;99.90
12845;DHT22;68700;48.534;9.196;2023-10-09T12:10:36;24.50;99.90
12845;DHT22;68700;48.534;9.196;2023-10-09T12:13:58;24.20;99.90
12845;DHT22;68700;48.534;9.196;2023-10-09T12:17:21;23.90;99.90
12845;DHT22;68700;48.534;9.196;2023-10-09T12:20:46;23.70;99.90
12845;DHT22;68700;48.534;9.196;2023-10-09T12:24:11;23.60;99.90
12845;DHT22;68700;48.534;9.196;2023-10-09T12:27:34;23.60;99.90
12845;DHT22;68700;48.534;9.196;2023-10-09T12:30:56;23.70;99.90
12845;DHT22;68700;48.534;9.196;2023-10-09T12:34:21;23.60;99.90
12845;DHT22;68700;48.534;9.196;2023-10-09T12:37:47;23.50;99.90
12845;DHT22;68700;48.534;9.196;2023-10-09T12:41:10;23.40;99.90
12845;DHT22;68700;48.534;9.196;2023-10-09T12:44:41;23.50;99.90
12845;DHT22;68700;48.534;9.196;2023-10-09T12:52:08;24.40;99.90
12845;DHT22;68700;48.534;9.196;2023-10-09T12:55:36;24.90;99.90
12845;DHT22;68700;48.534;9.196;2023-10-09T12:59:00;25.30;99.90
12845;DHT22;68700;48.534;9.196;2023-10-09T13:02:26;25.40;99.90
12845;DHT22;68700;48.534;9.196;2023-10-09T13:05:52;25.20;99.90
12845;DHT22;68700;48.534;9.196;2023-10-09T13:09:16;25.80;99.90
12845;DHT22;68700;48.534;9.196;2023-10-09T13:12:45;26.80;99.90
12845;DHT22;68700;48.534;9.196;2023-10-09T13:16:08;26.40;99.90
12845;DHT22;68700;48.534;9.196;2023-10-09T13:19:33;26.70;99.90
12845;DHT22;68700;48.534;9.196;2023-10-09T13:22:55;26.40;99.90
12845;DHT22;68700;48.534;9.196;2023-10-09T13:26:18;26.40;99.90
12845;DHT22;68700;48.534;9.196;2023-10-09T13:29:44;26.10;99.90
12845;DHT22;68700;48.534;9.196;2023-10-09T13:33:06;25.90;99.90
12845;DHT22;68700;48.534;9.196;2023-10-09T13:36:29;26.40;99.90
12845;DHT22;68700;48.534;9.196;2023-10-09T13:39:52;27.00;99.90
12845;DHT22;68700;48.534;9.196;2023-10-09T13:43:14;28.00;99.90
12845;DHT22;68700;48.534;9.196;2023-10-09T13:46:37;28.80;99.90
12845;DHT22;68700;48.534;9.196;2023-10-09T13:50:01;28.70;99.90
12845;DHT22;68700;48.534;9.196;2023-10-09T13:53:25;28.70;99.90
12845;DHT22;68700;48.534;9.196;2023-10-09T13:56:48;28.20;99.90
12845;DHT22;68700;48.534;9.196;2023-10-09T14:00:14;28.10;99.90
12845;DHT22;68700;48.534;9.196;2023-10-09T14:03:40;28.30;99.90
12845;DHT22;68700;48.534;9.196;2023-10-09T14:07:02;27.20;99.90
12845;DHT22;68700;48.534;9.196;2023-10-09T14:10:27;27.50;99.90
12845;DHT22;68700;48.534;9.196;2023-10-09T14:13:51;27.10;99.90
12845;DHT22;68700;48.534;9.196;2023-10-09T14:17:13;26.80;99.90
12845;DHT22;68700;48.534;9.196;2023-10-09T14:20:35;27.40;99.90
12845;DHT22;68700;48.534;9.196;2023-10-09T14:23:58;27.00;99.90
12845;DHT22;68700;48.534;9.196;2023-10-09T14:27:22;27.80;99.90
12845;DHT22;68700;48.534;9.196;2023-10-09T14:30:46;28.20;99.90
12845;DHT22;68700;48.534;9.196;2023-10-09T14:34:17;28.40;99.90
12845;DHT22;68700;48.534;9.196;2023-10-09T14:37:39;28.10;99.90
12845;DHT22;68700;48.534;9.196;2023-10-09T14:41:00;27.90;99.90
12845;DHT22;68700;48.534;9.196;2023-10-09T14:44:25;28.00;99.90
12845;DHT22;68700;48.534;9.196;2023-10-09T14:47:48;28.40;99.90
12845;DHT22;68700;48.534;9.196;2023-10-09T14:51:10;27.50;99.90
12845;DHT22;68700;48.534;9.196;2023-10-09T14:54:33;27.30;99.90
12845;DHT22;68700;48.534;9.196;2023-10-09T14:57:55;27.30;99.90
12845;DHT22;68700;48.534;9.196;2023-10-09T15:01:20;26.90;99.90
12845;DHT22;68700;48.534;9.196;2023-10-09T15:04:45;26.60;99.90
12845;DHT22;68700;48.534;9.196;2023-10-09T15:08:06;26.50;99.90
12845;DHT22;68700;48.534;9.196;2023-10-09T15:11:31;26.10;99.90
12845;DHT22;68700;48.534;9.196;2023-10-09T15:14:53;26.20;99.90
12845;DHT22;68700;48.534;9.196;2023-10-09T15:18:18;26.20;99.90
12845;DHT22;68700;48.534;9.196;2023-10-09T15:21:42;25.90;99.90
12845;DHT22;68700;48.534;9.196;2023-10-09T15:25:06;25.60;99.90
12845;DHT22;68700;48.534;9.196;2023-10-09T15:28:28;26.00;99.90
12845;DHT22;68700;48.534;9.196;2023-10-09T15:31:53;25.70;99.90
12845;DHT22;68700;48.534;9.196;2023-10-09T15:35:17;25.40;99.90
12845;DHT22;68700;48.534;9.196;2023-10-09T15:38:39;25.00;99.90
12845;DHT22;68700;48.534;9.196;2023-10-09T15:42:01;25.00;99.90
12845;DHT22;68700;48.534;9.196;2023-10-09T15:45:25;24.80;99.90
12845;DHT22;68700;48.534;9.196;2023-10-09T15:48:48;24.60;99.90
12845;DHT22;68700;48.534;9.196;2023-10-09T15:52:13;24.50;99.90
12845;DHT22;68700;48.534;9.196;2023-10-09T15:55:36;24.30;99.90
12845;DHT22;68700;48.534;9.196;2023-10-09T15:58:58;24.10;99.90
12845;DHT22;68700;48.534;9.196;2023-10-09T16:02:20;24.20;99.90
12845;DHT22;68700;48.534;9.196;2023-10-09T16:05:42;24.10;99.90
12845;DHT22;68700;48.534;9.196;2023-10-09T16:09:06;23.90;99.90
12845;DHT22;68700;48.534;9.196;2023-10-09T16:12:31;23.70;99.90
12845;DHT22;68700;48.534;9.196;2023-10-09T16:15:54;23.70;99.90
12845;DHT22;68700;48.534;9.196;2023-10-09T16:19:17;23.50;99.90
12845;DHT22;68700;48.534;9.196;2023-10-09T16:22:40;23.30;99.90
12845;DHT22;68700;48.534;9.196;2023-10-09T16:26:03;23.20;99.90
12845;DHT22;68700;48.534;9.196;2023-10-09T16:29:27;23.10;99.90
12845;DHT22;68700;48.534;9.196;2023-10-09T16:32:49;22.90;99.90
12845;DHT22;68700;48.534;9.196;2023-10-09T16:36:11;22.70;99.90
12845;DHT22;68700;48.534;9.196;2023-10-09T16:39:33;22.50;99.90
12845;DHT22;68700;48.534;9.196;2023-10-09T16:43:00;22.30;99.90
12845;DHT22;68700;48.534;9.196;2023-10-09T16:46:22;22.00;99.90
12845;DHT22;68700;48.534;9.196;2023-10-09T16:49:44;21.70;99.90
12845;DHT22;68700;48.534;9.196;2023-10-09T16:53:11;21.50;99.90
12845;DHT22;68700;48.534;9.196;2023-10-09T16:56:33;21.20;99.90
12845;DHT22;68700;48.534;9.196;2023-10-09T16:59:56;20.90;99.90
12845;DHT22;68700;48.534;9.196;2023-10-09T17:03:18;20.70;99.90
12845;DHT22;68700;48.534;9.196;2023-10-09T17:06:40;20.50;99.90
12845;DHT22;68700;48.534;9.196;2023-10-09T17:10:04;20.30;99.90
12845;DHT22;68700;48.534;9.196;2023-10-09T17:13:35;20.10;99.90
12845;DHT22;68700;48.534;9.196;2023-10-09T17:16:59;20.00;99.90
12845;DHT22;68700;48.534;9.196;2023-10-09T17:20:21;19.80;99.90
12845;DHT22;68700;48.534;9.196;2023-10-09T17:23:47;19.60;99.90
12845;DHT22;68700;48.534;9.196;2023-10-09T17:27:09;19.50;99.90
12845;DHT22;68700;48.534;9.196;2023-10-09T17:30:31;19.40;99.90
12845;DHT22;68700;48.534;9.196;2023-10-09T17:33:55;19.30;99.90
12845;DHT22;68700;48.534;9.196;2023-10-09T17:37:17;19.20;99.90
12845;DHT22;68700;48.534;9.196;2023-10-09T17:40:45;19.00;99.90
12845;DHT22;68700;48.534;9.196;2023-10-09T17:44:11;19.00;99.90
12845;DHT22;68700;48.534;9.196;2023-10-09T17:47:35;18.90;99.90
12845;DHT22;68700;48.534;9.196;2023-10-09T17:50:58;18.80;99.90
12845;DHT22;68700;48.534;9.196;2023-10-09T17:54:21;18.80;99.90
12845;DHT22;68700;48.534;9.196;2023-10-09T17:57:44;18.50;99.90
12845;DHT22;68700;48.534;9.196;2023-10-09T18:01:05;18.40;99.90
12845;DHT22;68700;48.534;9.196;2023-10-09T18:04:29;18.30;99.90
12845;DHT22;68700;48.534;9.196;2023-10-09T18:07:57;18.20;99.90
12845;DHT22;68700;48.534;9.196;2023-10-09T18:11:22;18.10;99.90
12845;DHT22;68700;48.534;9.196;2023-10-09T18:14:44;17.90;99.90
12845;DHT22;68700;48.534;9.196;2023-10-09T18:18:06;17.80;99.90
12845;DHT22;68700;48.534;9.196;2023-10-09T18:21:32;17.60;99.90
12845;DHT22;68700;48.534;9.196;2023-10-09T18:24:59;17.50;1.00
12845;DHT22;68700;48.534;9.196;2023-10-09T18:28:21;17.40;1.00
12845;DHT22;68700;48.534;9.196;2023-10-09T18:31:45;17.30;1.00
12845;DHT22;68700;48.534;9.196;2023-10-09T18:35:08;17.30;1.00
12845;DHT22;68700;48.534;9.196;2023-10-09T18:38:30;17.20;1.00
12845;DHT22;68700;48.534;9.196;2023-10-09T18:41:54;17.20;1.00
12845;DHT22;68700;48.534;9.196;2023-10-09T18:45:16;17.10;1.00
12845;DHT22;68700;48.534;9.196;2023-10-09T18:48:39;16.90;1.00
12845;DHT22;68700;48.534;9.196;2023-10-09T18:52:01;16.90;1.00
12845;DHT22;68700;48.534;9.196;2023-10-09T18:55:26;16.70;1.00
12845;DHT22;68700;48.534;9.196;2023-10-09T18:58:49;16.70;1.00
12845;DHT22;68700;48.534;9.196;2023-10-09T19:02:11;16.70;1.00
12845;DHT22;68700;48.534;9.196;2023-10-09T19:05:34;16.70;1.00
12845;DHT22;68700;48.534;9.196;2023-10-09T19:08:57;16.80;1.00
12845;DHT22;68700;48.534;9.196;2023-10-09T19:12:19;16.90;1.00
12845;DHT22;68700;48.534;9.196;2023-10-09T19:15:49;17.00;1.00
12845;DHT22;68700;48.534;9.196;2023-10-09T19:19:11;17.10;1.00
12845;DHT22;68700;48.534;9.196;2023-10-09T19:22:33;17.10;1.40
12845;DHT22;68700;48.534;9.196;2023-10-09T19:25:58;17.10;1.00
12845;DHT22;68700;48.534;9.196;2023-10-09T19:29:19;17.10;1.00
12845;DHT22;68700;48.534;9.196;2023-10-09T19:32:43;16.90;1.00
12845;DHT22;68700;48.534;9.196;2023-10-09T19:36:06;16.90;1.00
12845;DHT22;68700;48.534;9.196;2023-10-09T19:39:31;16.90;1.00
12845;DHT22;68700;48.534;9.196;2023-10-09T19:42:53;16.90;1.00
12845;DHT22;68700;48.534;9.196;2023-10-09T19:46:15;16.80;1.00
12845;DHT22;68700;48.534;9.196;2023-10-09T19:49:39;16.80;1.00
12845;DHT22;68700;48.534;9.196;2023-10-09T19:53:01;16.70;1.00
12845;DHT22;68700;48.534;9.196;2023-10-09T19:56:23;16.70;1.00
12845;DHT22;68700;48.534;9.196;2023-10-09T19:59:45;16.70;1.00
12845;DHT22;68700;48.534;9.196;2023-10-09T20:03:08;16.70;1.00
12845;DHT22;68700;48.534;9.196;2023-10-09T20:06:31;16.60;1.00
12845;DHT22;68700;48.534;9.196;2023-10-09T20:09:53;16.50;1.00
12845;DHT22;68700;48.534;9.196;2023-10-09T20:13:18;16.40;1.00
12845;DHT22;68700;48.534;9.196;2023-10-09T20:16:40;16.30;1.00
12845;DHT22;68700;48.534;9.196;2023-10-09T20:20:02;16.20;1.00
12845;DHT22;68700;48.534;9.196;2023-10-09T20:23:29;16.20;1.00
12845;DHT22;68700;48.534;9.196;2023-10-09T20:26:51;16.20;1.00
12845;DHT22;68700;48.534;9.196;2023-10-09T20:30:15;16.10;1.00
12845;DHT22;68700;48.534;9.196;2023-10-09T20:33:37;16.00;1.00
12845;DHT22;68700;48.534;9.196;2023-10-09T20:36:59;15.90;1.00
12845;DHT22;68700;48.534;9.196;2023-10-09T20:40:24;15.80;1.00
12845;DHT22;68700;48.534;9.196;2023-10-09T20:43:49;15.60;1.00
12845;DHT22;68700;48.534;9.196;2023-10-09T20:47:13;15.50;1.00
12845;DHT22;68700;48.534;9.196;2023-10-09T20:50:35;15.50;1.00
12845;DHT22;68700;48.534;9.196;2023-10-09T20:54:00;15.40;1.00
12845;DHT22;68700;48.534;9.196;2023-10-09T20:57:23;15.30;1.00
12845;DHT22;68700;48.534;9.196;2023-10-09T21:00:45;15.30;1.00
12845;DHT22;68700;48.534;9.196;2023-10-09T21:04:06;15.30;1.00
12845;DHT22;68700;48.534;9.196;2023-10-09T21:07:29;15.20;1.00
12845;DHT22;68700;48.534;9.196;2023-10-09T21:10:51;15.20;1.00
12845;DHT22;68700;48.534;9.196;2023-10-09T21:14:14;15.10;1.00
12845;DHT22;68700;48.534;9.196;2023-10-09T21:17:37;15.10;1.00
12845;DHT22;68700;48.534;9.196;2023-10-09T21:20:59;15.10;1.00
12845;DHT22;68700;48.534;9.196;2023-10-09T21:24:22;15.00;1.00
12845;DHT22;68700;48.534;9.196;2023-10-09T21:27:44;15.00;1.00
12845;DHT22;68700;48.534;9.196;2023-10-09T21:31:07;14.90;1.00
12845;DHT22;68700;48.534;9.196;2023-10-09T21:34:29;14.80;1.00
12845;DHT22;68700;48.534;9.196;2023-10-09T21:37:52;14.60;1.00
12845;DHT22;68700;48.534;9.196;2023-10-09T21:41:15;14.60;1.00
12845;DHT22;68700;48.534;9.196;2023-10-09T21:44:38;14.50;1.00
12845;DHT22;68700;48.534;9.196;2023-10-09T21:48:01;14.40;1.00
12845;DHT22;68700;48.534;9.196;2023-10-09T21:51:24;14.30;1.00
12845;DHT22;68700;48.534;9.196;2023-10-09T21:54:46;14.30;1.00
12845;DHT22;68700;48.534;9.196;2023-10-09T21:58:08;14.30;1.00
12845;DHT22;68700;48.534;9.196;2023-10-09T22:01:31;14.30;1.00